LHX7KK EDDM-EDDL
Flight info
| Callsign | LHX7KK |
|---|---|
| Flight time | 0h 47m |
| Altitude | 32000 |
| Route | GIVMI Y101 INBED DCT REKDI DCT LOHRE Z850 ADEMI T854 DOMUX |
| Aircraft | A319/M-SDE3FGHIRWY/LB1 |
Departure
| Time | 2026-05-07 20:21 |
|---|---|
| Airport | Munich Airport (EDDM) |
Arrival
| Time | 2026-05-07 21:08 |
|---|---|
| Airport | Düsseldorf Airport (EDDL) |
| Time | Latitude | Longitude | Altitude | Speed | Heading |
|---|---|---|---|---|---|
| 2026-05-07 20:00 | 48.35739 | 11.79260 | 1485 ft | 0 kts | 263° |
| 2026-05-07 20:11 | 48.35740 | 11.79273 | 1485 ft | 3 kts | 263° |
| 2026-05-07 20:11 | 48.35743 | 11.79302 | 1471 ft | 3 kts | 263° |
| 2026-05-07 20:11 | 48.35745 | 11.79332 | 1473 ft | 3 kts | 263° |
| 2026-05-07 20:12 | 48.35747 | 11.79361 | 1475 ft | 3 kts | 277° |
| 2026-05-07 20:12 | 48.35741 | 11.79388 | 1473 ft | 3 kts | 309° |
| 2026-05-07 20:12 | 48.35728 | 11.79405 | 1477 ft | 3 kts | 346° |
| 2026-05-07 20:12 | 48.35717 | 11.79408 | 1472 ft | 2 kts | 353° |
| 2026-05-07 20:13 | 48.35705 | 11.79411 | 1475 ft | 0 kts | 353° |
| 2026-05-07 20:13 | 48.35704 | 11.79411 | 1475 ft | 0 kts | 353° |
| 2026-05-07 20:15 | 48.35713 | 11.79410 | 1473 ft | 4 kts | 358° |
| 2026-05-07 20:15 | 48.35761 | 11.79437 | 1482 ft | 9 kts | 29° |
| 2026-05-07 20:16 | 48.35816 | 11.79483 | 1480 ft | 10 kts | 29° |
| 2026-05-07 20:16 | 48.35890 | 11.79515 | 1485 ft | 13 kts | 357° |
| 2026-05-07 20:16 | 48.35985 | 11.79498 | 1483 ft | 14 kts | 353° |
| 2026-05-07 20:16 | 48.36084 | 11.79481 | 1481 ft | 15 kts | 353° |
| 2026-05-07 20:17 | 48.36177 | 11.79469 | 1475 ft | 12 kts | 6° |
| 2026-05-07 20:17 | 48.36221 | 11.79568 | 1485 ft | 13 kts | 83° |
| 2026-05-07 20:17 | 48.36233 | 11.79725 | 1485 ft | 18 kts | 83° |
| 2026-05-07 20:17 | 48.36249 | 11.79936 | 1485 ft | 22 kts | 83° |
| 2026-05-07 20:18 | 48.36267 | 11.80169 | 1477 ft | 23 kts | 83° |
| 2026-05-07 20:18 | 48.36285 | 11.80406 | 1485 ft | 23 kts | 83° |
| 2026-05-07 20:18 | 48.36304 | 11.80646 | 1485 ft | 23 kts | 83° |
| 2026-05-07 20:18 | 48.36323 | 11.80888 | 1475 ft | 23 kts | 82° |
| 2026-05-07 20:19 | 48.36341 | 11.81125 | 1482 ft | 20 kts | 84° |
| 2026-05-07 20:19 | 48.36389 | 11.81216 | 1485 ft | 12 kts | 354° |
| 2026-05-07 20:19 | 48.36436 | 11.81123 | 1483 ft | 12 kts | 293° |
| 2026-05-07 20:19 | 48.36470 | 11.81006 | 1475 ft | 13 kts | 293° |
| 2026-05-07 20:20 | 48.36505 | 11.80882 | 1482 ft | 13 kts | 293° |
| 2026-05-07 20:20 | 48.36541 | 11.80754 | 1481 ft | 14 kts | 293° |
| 2026-05-07 20:20 | 48.36568 | 11.80562 | 1485 ft | 26 kts | 266° |
| 2026-05-07 20:20 | 48.36529 | 11.80043 | 1485 ft | 85 kts | 263° |
| 2026-05-07 20:21 | 48.36434 | 11.78813 | 1486 ft | 149 kts | 263° |
| 2026-05-07 20:21 | 48.36313 | 11.77209 | 2057 ft | 151 kts | 264° |
| 2026-05-07 20:21 | 48.36202 | 11.75632 | 2762 ft | 152 kts | 265° |
| 2026-05-07 20:21 | 48.36087 | 11.73972 | 3228 ft | 169 kts | 265° |
| 2026-05-07 20:22 | 48.35944 | 11.72120 | 3668 ft | 187 kts | 263° |
| 2026-05-07 20:22 | 48.35775 | 11.70073 | 4081 ft | 209 kts | 263° |
| 2026-05-07 20:22 | 48.35807 | 11.67772 | 4509 ft | 232 kts | 288° |
| 2026-05-07 20:22 | 48.36598 | 11.65568 | 5080 ft | 254 kts | 302° |
| 2026-05-07 20:23 | 48.37567 | 11.63261 | 5876 ft | 264 kts | 301° |
| 2026-05-07 20:23 | 48.38553 | 11.60915 | 6908 ft | 266 kts | 301° |
| 2026-05-07 20:23 | 48.39544 | 11.58552 | 7932 ft | 267 kts | 300° |
| 2026-05-07 20:23 | 48.40528 | 11.56180 | 8971 ft | 268 kts | 299° |
| 2026-05-07 20:24 | 48.41505 | 11.53768 | 9930 ft | 272 kts | 299° |
| 2026-05-07 20:24 | 48.42494 | 11.51311 | 10801 ft | 276 kts | 298° |
| 2026-05-07 20:24 | 48.43490 | 11.48830 | 11700 ft | 278 kts | 299° |
| 2026-05-07 20:24 | 48.44771 | 11.46475 | 12004 ft | 309 kts | 318° |
| 2026-05-07 20:25 | 48.46686 | 11.44854 | 12332 ft | 336 kts | 339° |
| 2026-05-07 20:25 | 48.49069 | 11.44208 | 12662 ft | 359 kts | 349° |
| 2026-05-07 20:25 | 48.51594 | 11.43553 | 12931 ft | 376 kts | 344° |
| 2026-05-07 20:25 | 48.54137 | 11.42418 | 13404 ft | 385 kts | 338° |
| 2026-05-07 20:26 | 48.56655 | 11.40977 | 14036 ft | 390 kts | 335° |
| 2026-05-07 20:26 | 48.59177 | 11.39408 | 14646 ft | 394 kts | 335° |
| 2026-05-07 20:26 | 48.61724 | 11.37821 | 15300 ft | 397 kts | 335° |
| 2026-05-07 20:26 | 48.64303 | 11.36268 | 15942 ft | 401 kts | 336° |
| 2026-05-07 20:27 | 48.66920 | 11.34752 | 16554 ft | 405 kts | 337° |
| 2026-05-07 20:27 | 48.69574 | 11.33262 | 17126 ft | 409 kts | 337° |
| 2026-05-07 20:27 | 48.72220 | 11.31802 | 17698 ft | 412 kts | 337° |
| 2026-05-07 20:27 | 48.74925 | 11.30317 | 18271 ft | 415 kts | 337° |
| 2026-05-07 20:28 | 48.77648 | 11.28819 | 18805 ft | 417 kts | 337° |
| 2026-05-07 20:28 | 48.80379 | 11.27308 | 19305 ft | 419 kts | 337° |
| 2026-05-07 20:28 | 48.83125 | 11.25778 | 19793 ft | 421 kts | 336° |
| 2026-05-07 20:28 | 48.85883 | 11.24233 | 20266 ft | 424 kts | 336° |
| 2026-05-07 20:29 | 48.88659 | 11.22678 | 20729 ft | 427 kts | 337° |
| 2026-05-07 20:29 | 48.91452 | 11.21113 | 21184 ft | 429 kts | 337° |
| 2026-05-07 20:29 | 48.94261 | 11.19535 | 21627 ft | 431 kts | 336° |
| 2026-05-07 20:29 | 48.97045 | 11.17966 | 22055 ft | 434 kts | 336° |
| 2026-05-07 20:30 | 48.99886 | 11.16363 | 22495 ft | 437 kts | 337° |
| 2026-05-07 20:30 | 49.02743 | 11.14753 | 22915 ft | 439 kts | 337° |
| 2026-05-07 20:30 | 49.05617 | 11.13132 | 23324 ft | 442 kts | 337° |
| 2026-05-07 20:30 | 49.08510 | 11.11503 | 23711 ft | 444 kts | 337° |
| 2026-05-07 20:31 | 49.11421 | 11.09865 | 24039 ft | 447 kts | 337° |
| 2026-05-07 20:31 | 49.14343 | 11.08218 | 24370 ft | 449 kts | 337° |
| 2026-05-07 20:31 | 49.17280 | 11.06556 | 24699 ft | 451 kts | 337° |
| 2026-05-07 20:31 | 49.20229 | 11.04880 | 25019 ft | 453 kts | 337° |
| 2026-05-07 20:32 | 49.23148 | 11.03206 | 25361 ft | 455 kts | 337° |
| 2026-05-07 20:32 | 49.26120 | 11.01490 | 25626 ft | 458 kts | 337° |
| 2026-05-07 20:32 | 49.29111 | 10.99756 | 25914 ft | 460 kts | 337° |
| 2026-05-07 20:32 | 49.32112 | 10.98018 | 26222 ft | 462 kts | 337° |
| 2026-05-07 20:33 | 49.35098 | 10.96171 | 26510 ft | 463 kts | 332° |
| 2026-05-07 20:33 | 49.37877 | 10.93705 | 26876 ft | 461 kts | 323° |
| 2026-05-07 20:33 | 49.40362 | 10.90630 | 27323 ft | 457 kts | 315° |
| 2026-05-07 20:33 | 49.42506 | 10.87058 | 27779 ft | 455 kts | 308° |
| 2026-05-07 20:34 | 49.44551 | 10.83354 | 28214 ft | 454 kts | 310° |
| 2026-05-07 20:34 | 49.46684 | 10.79871 | 28669 ft | 453 kts | 313° |
| 2026-05-07 20:34 | 49.48924 | 10.76460 | 29124 ft | 453 kts | 315° |
| 2026-05-07 20:34 | 49.51192 | 10.73109 | 29575 ft | 452 kts | 315° |
| 2026-05-07 20:35 | 49.53455 | 10.69756 | 30052 ft | 451 kts | 315° |
| 2026-05-07 20:35 | 49.55692 | 10.66381 | 30479 ft | 450 kts | 314° |
| 2026-05-07 20:35 | 49.57897 | 10.62977 | 30877 ft | 449 kts | 314° |
| 2026-05-07 20:35 | 49.60082 | 10.59547 | 31270 ft | 448 kts | 313° |
| 2026-05-07 20:36 | 49.62253 | 10.56102 | 31657 ft | 447 kts | 313° |
| 2026-05-07 20:36 | 49.64386 | 10.52700 | 31923 ft | 447 kts | 313° |
| 2026-05-07 20:36 | 49.66546 | 10.49255 | 32067 ft | 447 kts | 313° |
| 2026-05-07 20:37 | 49.70875 | 10.42375 | 32089 ft | 446 kts | 313° |
| 2026-05-07 20:37 | 49.75191 | 10.35490 | 32089 ft | 446 kts | 313° |
| 2026-05-07 20:38 | 49.79510 | 10.28572 | 32093 ft | 447 kts | 313° |
| 2026-05-07 20:38 | 49.83795 | 10.21681 | 32093 ft | 447 kts | 313° |
| 2026-05-07 20:39 | 49.88107 | 10.14747 | 32091 ft | 447 kts | 313° |
| 2026-05-07 20:39 | 49.92422 | 10.07804 | 32093 ft | 447 kts | 313° |
| 2026-05-07 20:40 | 49.96727 | 10.00833 | 32088 ft | 447 kts | 313° |
| 2026-05-07 20:40 | 50.01018 | 9.93862 | 32108 ft | 446 kts | 313° |
| 2026-05-07 20:41 | 50.05276 | 9.86930 | 32098 ft | 446 kts | 313° |
| 2026-05-07 20:41 | 50.09554 | 9.79941 | 32092 ft | 446 kts | 313° |
| 2026-05-07 20:42 | 50.13828 | 9.72935 | 32091 ft | 446 kts | 313° |
| 2026-05-07 20:42 | 50.18097 | 9.65921 | 32078 ft | 446 kts | 313° |
| 2026-05-07 20:43 | 50.22364 | 9.58912 | 32091 ft | 445 kts | 313° |
| 2026-05-07 20:43 | 50.26597 | 9.51927 | 32101 ft | 445 kts | 313° |
| 2026-05-07 20:44 | 50.30851 | 9.44880 | 32096 ft | 446 kts | 313° |
| 2026-05-07 20:44 | 50.35104 | 9.37826 | 32098 ft | 445 kts | 313° |
| 2026-05-07 20:45 | 50.39346 | 9.30767 | 32092 ft | 445 kts | 312° |
| 2026-05-07 20:45 | 50.43557 | 9.23730 | 32087 ft | 445 kts | 312° |
| 2026-05-07 20:46 | 50.47802 | 9.16634 | 32088 ft | 446 kts | 312° |
| 2026-05-07 20:46 | 50.52041 | 9.09524 | 32087 ft | 446 kts | 312° |
| 2026-05-07 20:47 | 50.56276 | 9.02387 | 32091 ft | 446 kts | 312° |
| 2026-05-07 20:47 | 50.60481 | 8.95288 | 32091 ft | 447 kts | 312° |
| 2026-05-07 20:48 | 50.64712 | 8.88124 | 32091 ft | 447 kts | 312° |
| 2026-05-07 20:48 | 50.68943 | 8.80938 | 32092 ft | 447 kts | 312° |
| 2026-05-07 20:49 | 50.73171 | 8.73742 | 32095 ft | 447 kts | 312° |
| 2026-05-07 20:49 | 50.77372 | 8.66580 | 32100 ft | 448 kts | 312° |
| 2026-05-07 20:50 | 50.81599 | 8.59349 | 32106 ft | 448 kts | 312° |
| 2026-05-07 20:50 | 50.85819 | 8.52098 | 32111 ft | 448 kts | 311° |
| 2026-05-07 20:51 | 50.90034 | 8.44831 | 32103 ft | 448 kts | 311° |
| 2026-05-07 20:51 | 50.94225 | 8.37603 | 31981 ft | 450 kts | 311° |
| 2026-05-07 20:51 | 50.96338 | 8.33949 | 31591 ft | 450 kts | 311° |
| 2026-05-07 20:52 | 50.98453 | 8.30288 | 31208 ft | 450 kts | 311° |
| 2026-05-07 20:52 | 51.00571 | 8.26616 | 30827 ft | 451 kts | 311° |
| 2026-05-07 20:52 | 51.02688 | 8.22932 | 30455 ft | 452 kts | 311° |
| 2026-05-07 20:52 | 51.04808 | 8.19238 | 30081 ft | 453 kts | 311° |
| 2026-05-07 20:53 | 51.06660 | 8.15218 | 29648 ft | 452 kts | 297° |
| 2026-05-07 20:53 | 51.07788 | 8.10573 | 29215 ft | 451 kts | 282° |
| 2026-05-07 20:53 | 51.08080 | 8.07309 | 28940 ft | 452 kts | 273° |
| 2026-05-07 20:53 | 51.08143 | 8.02307 | 28526 ft | 453 kts | 270° |
| 2026-05-07 20:54 | 51.08196 | 7.95701 | 27353 ft | 450 kts | 270° |
| 2026-05-07 20:54 | 51.08232 | 7.90707 | 26070 ft | 454 kts | 270° |
| 2026-05-07 20:54 | 51.08268 | 7.85661 | 24774 ft | 458 kts | 270° |
| 2026-05-07 20:54 | 51.08305 | 7.80594 | 23751 ft | 456 kts | 270° |
| 2026-05-07 20:55 | 51.08328 | 7.77271 | 23090 ft | 452 kts | 270° |
| 2026-05-07 20:55 | 51.08370 | 7.70636 | 21819 ft | 445 kts | 270° |
| 2026-05-07 20:55 | 51.08388 | 7.67387 | 21228 ft | 441 kts | 270° |
| 2026-05-07 20:55 | 51.08413 | 7.62542 | 20371 ft | 436 kts | 270° |
| 2026-05-07 20:56 | 51.08438 | 7.57747 | 19543 ft | 431 kts | 270° |
| 2026-05-07 20:56 | 51.08465 | 7.51476 | 18494 ft | 425 kts | 270° |
| 2026-05-07 20:56 | 51.08479 | 7.48308 | 17915 ft | 423 kts | 270° |
| 2026-05-07 20:56 | 51.08503 | 7.42168 | 16828 ft | 417 kts | 270° |
| 2026-05-07 20:57 | 51.08514 | 7.39065 | 16306 ft | 414 kts | 270° |
| 2026-05-07 20:57 | 51.08525 | 7.34573 | 15618 ft | 409 kts | 270° |
| 2026-05-07 20:57 | 51.08535 | 7.30094 | 14943 ft | 404 kts | 270° |
| 2026-05-07 20:57 | 51.08546 | 7.25637 | 14247 ft | 401 kts | 270° |
| 2026-05-07 20:58 | 51.08557 | 7.21220 | 13572 ft | 398 kts | 270° |
| 2026-05-07 20:58 | 51.08566 | 7.16841 | 12855 ft | 394 kts | 269° |
| 2026-05-07 20:58 | 51.08569 | 7.12496 | 12117 ft | 391 kts | 270° |
| 2026-05-07 20:58 | 51.08573 | 7.08189 | 11356 ft | 388 kts | 270° |
| 2026-05-07 20:59 | 51.08575 | 7.03924 | 10896 ft | 378 kts | 270° |
| 2026-05-07 20:59 | 51.08575 | 6.99896 | 10760 ft | 352 kts | 270° |
| 2026-05-07 20:59 | 51.08575 | 6.96126 | 10639 ft | 329 kts | 270° |
| 2026-05-07 20:59 | 51.08573 | 6.92640 | 10517 ft | 310 kts | 270° |
| 2026-05-07 21:00 | 51.08570 | 6.89325 | 10348 ft | 292 kts | 270° |
| 2026-05-07 21:00 | 51.08568 | 6.86142 | 9947 ft | 285 kts | 270° |
| 2026-05-07 21:00 | 51.08562 | 6.82990 | 9577 ft | 284 kts | 270° |
| 2026-05-07 21:00 | 51.08555 | 6.79860 | 9206 ft | 282 kts | 270° |
| 2026-05-07 21:01 | 51.08554 | 6.76762 | 8803 ft | 279 kts | 270° |
| 2026-05-07 21:01 | 51.08549 | 6.73684 | 8281 ft | 277 kts | 270° |
| 2026-05-07 21:01 | 51.08542 | 6.70633 | 7767 ft | 275 kts | 270° |
| 2026-05-07 21:01 | 51.08532 | 6.67647 | 7268 ft | 273 kts | 270° |
| 2026-05-07 21:02 | 51.08519 | 6.64643 | 6768 ft | 270 kts | 270° |
| 2026-05-07 21:02 | 51.08503 | 6.61752 | 6612 ft | 251 kts | 270° |
| 2026-05-07 21:02 | 51.08478 | 6.59057 | 6304 ft | 239 kts | 269° |
| 2026-05-07 21:02 | 51.08520 | 6.56435 | 5802 ft | 237 kts | 282° |
| 2026-05-07 21:03 | 51.09249 | 6.54150 | 5380 ft | 233 kts | 315° |
| 2026-05-07 21:03 | 51.10562 | 6.52661 | 4954 ft | 233 kts | 329° |
| 2026-05-07 21:03 | 51.11960 | 6.51359 | 4546 ft | 233 kts | 342° |
| 2026-05-07 21:03 | 51.13518 | 6.51197 | 4242 ft | 228 kts | 14° |
| 2026-05-07 21:04 | 51.15023 | 6.51988 | 3902 ft | 228 kts | 22° |
| 2026-05-07 21:04 | 51.16492 | 6.52926 | 3575 ft | 227 kts | 23° |
| 2026-05-07 21:04 | 51.17830 | 6.54186 | 3423 ft | 225 kts | 44° |
| 2026-05-07 21:04 | 51.18815 | 6.56087 | 3180 ft | 221 kts | 53° |
| 2026-05-07 21:05 | 51.19741 | 6.58030 | 2896 ft | 221 kts | 53° |
| 2026-05-07 21:05 | 51.20669 | 6.59967 | 2579 ft | 216 kts | 53° |
| 2026-05-07 21:05 | 51.21536 | 6.61772 | 2305 ft | 199 kts | 53° |
| 2026-05-07 21:05 | 51.22346 | 6.63461 | 2088 ft | 183 kts | 54° |
| 2026-05-07 21:06 | 51.23088 | 6.65008 | 1816 ft | 169 kts | 54° |
| 2026-05-07 21:06 | 51.23780 | 6.66451 | 1584 ft | 158 kts | 54° |
| 2026-05-07 21:06 | 51.24429 | 6.67807 | 1383 ft | 149 kts | 54° |
| 2026-05-07 21:06 | 51.25042 | 6.69090 | 1176 ft | 142 kts | 54° |
| 2026-05-07 21:07 | 51.25632 | 6.70325 | 961 ft | 138 kts | 54° |
| 2026-05-07 21:07 | 51.26205 | 6.71523 | 756 ft | 133 kts | 54° |
| 2026-05-07 21:07 | 51.26762 | 6.72687 | 585 ft | 131 kts | 54° |
| 2026-05-07 21:07 | 51.27304 | 6.73821 | 439 ft | 130 kts | 53° |
| 2026-05-07 21:08 | 51.27845 | 6.74960 | 260 ft | 128 kts | 54° |
| 2026-05-07 21:08 | 51.28385 | 6.76088 | 133 ft | 120 kts | 52° |
| 2026-05-07 21:08 | 51.28815 | 6.76991 | 128 ft | 79 kts | 52° |
| 2026-05-07 21:08 | 51.28996 | 6.77373 | 127 ft | 21 kts | 54° |
| 2026-05-07 21:09 | 51.29008 | 6.77555 | 126 ft | 11 kts | 121° |
| 2026-05-07 21:09 | 51.28950 | 6.77635 | 129 ft | 11 kts | 143° |
| 2026-05-07 21:09 | 51.28888 | 6.77613 | 128 ft | 12 kts | 232° |
| 2026-05-07 21:09 | 51.28820 | 6.77467 | 129 ft | 22 kts | 233° |
| 2026-05-07 21:10 | 51.28710 | 6.77237 | 129 ft | 29 kts | 233° |
| 2026-05-07 21:10 | 51.28589 | 6.76986 | 127 ft | 29 kts | 232° |
| 2026-05-07 21:10 | 51.28501 | 6.76802 | 127 ft | 14 kts | 233° |
| 2026-05-07 21:10 | 51.28440 | 6.76676 | 124 ft | 15 kts | 231° |
| 2026-05-07 21:11 | 51.28378 | 6.76543 | 125 ft | 13 kts | 233° |
| 2026-05-07 21:11 | 51.28331 | 6.76484 | 122 ft | 9 kts | 182° |
| 2026-05-07 21:11 | 51.28204 | 6.76433 | 127 ft | 9 kts | 185° |
| 2026-05-07 21:12 | 51.28155 | 6.76456 | 124 ft | 7 kts | 110° |
| 2026-05-07 21:12 | 51.28151 | 6.76528 | 128 ft | 4 kts | 96° |
| 2026-05-07 21:12 | 51.28150 | 6.76539 | 128 ft | 0 kts | 97° |